createdAt,value
2019-05-14T00:03:22.925Z,14.02
2019-05-14T00:06:52.980Z,13.96
2019-05-14T00:10:23.008Z,13.86
2019-05-14T00:13:53.149Z,13.85
2019-05-14T00:17:23.113Z,13.86
2019-05-14T00:20:53.150Z,13.83
2019-05-14T00:24:23.180Z,13.9
2019-05-14T00:27:53.184Z,13.98
2019-05-14T00:31:23.186Z,14.11
2019-05-14T00:34:54.215Z,14.24
2019-05-14T00:38:24.301Z,14.31
2019-05-14T00:41:54.316Z,14.45
2019-05-14T00:45:24.359Z,14.47
2019-05-14T00:48:54.408Z,14.43
2019-05-14T00:52:24.530Z,14.4
2019-05-14T00:55:54.628Z,14.15
2019-05-14T00:59:24.695Z,13.94
2019-05-14T01:00:17.058Z,13.9
2019-05-14T01:03:47.137Z,13.98
2019-05-14T01:07:17.253Z,14.08
2019-05-14T01:10:47.361Z,14.24
2019-05-14T01:14:17.435Z,14.24
2019-05-14T01:17:47.613Z,14.25
2019-05-14T01:21:17.768Z,14.24
2019-05-14T01:24:47.921Z,14.31
2019-05-14T01:28:18.017Z,14.36
2019-05-14T01:31:48.139Z,14.37
2019-05-14T01:35:18.231Z,14.33
2019-05-14T01:38:48.384Z,14.34
2019-05-14T01:42:18.453Z,14.38
2019-05-14T01:45:48.569Z,14.42
2019-05-14T01:49:18.712Z,14.51
2019-05-14T01:52:48.810Z,14.55
2019-05-14T01:56:21.217Z,14.56
2019-05-14T01:59:51.783Z,14.63
2019-05-14T02:03:21.952Z,14.68
2019-05-14T02:06:52.013Z,14.73
2019-05-14T02:10:22.566Z,14.79
2019-05-14T02:13:52.615Z,14.83
2019-05-14T02:17:22.691Z,14.82
2019-05-14T02:20:52.697Z,14.83
2019-05-14T02:24:22.709Z,14.87
2019-05-14T02:27:52.798Z,14.96
2019-05-14T02:31:22.905Z,14.94
2019-05-14T02:34:52.938Z,14.97
2019-05-14T02:38:24.609Z,15
2019-05-14T02:41:54.759Z,14.99
2019-05-14T02:45:25.044Z,14.98
2019-05-14T02:48:55.085Z,14.97
2019-05-14T02:52:25.140Z,14.99
2019-05-14T02:55:55.202Z,15.01
2019-05-14T02:59:25.188Z,15.05
2019-05-14T03:00:19.119Z,15.03
2019-05-14T03:03:49.750Z,14.98
2019-05-14T03:07:19.922Z,15.06
2019-05-14T03:10:50.530Z,15.08
2019-05-14T03:14:20.820Z,15.1
2019-05-14T03:17:50.917Z,15.1
2019-05-14T03:21:20.995Z,15.22
2019-05-14T03:24:51.326Z,15.27
2019-05-14T03:28:21.503Z,15.32
2019-05-14T03:31:53.202Z,15.34
2019-05-14T03:35:33.269Z,15.34
2019-05-14T03:39:12.191Z,15.38
2019-05-14T03:42:42.221Z,15.44
2019-05-14T03:46:12.468Z,15.49
2019-05-14T03:49:42.498Z,15.42
2019-05-14T03:53:12.726Z,15.37
2019-05-14T03:56:42.960Z,15.43
2019-05-14T04:00:13.142Z,15.39
2019-05-14T04:03:43.481Z,15.41
2019-05-14T04:07:14.388Z,15.4
2019-05-14T04:10:50.685Z,15.27
2019-05-14T04:14:29.179Z,15.26
2019-05-14T04:17:59.809Z,15.18
2019-05-14T04:21:30.195Z,15.15
2019-05-14T04:25:05.525Z,15.17
2019-05-14T04:28:39.260Z,15.13
2019-05-14T04:32:09.727Z,15.18
2019-05-14T04:35:40.256Z,15.23
2019-05-14T04:39:10.361Z,15.28
2019-05-14T04:42:41.417Z,15.33
2019-05-14T04:46:11.644Z,15.47
2019-05-14T04:49:41.849Z,15.63
2019-05-14T05:27:19.491Z,16.85
2019-05-14T05:32:21.740Z,17.07
2019-05-14T05:35:51.831Z,17.22
2019-05-14T05:39:22.007Z,17.4
2019-05-14T05:42:53.127Z,17.83
2019-05-14T05:46:23.129Z,18.02
2019-05-14T05:49:53.095Z,18.08
2019-05-14T05:53:23.231Z,17.89
2019-05-14T05:56:53.296Z,18.06
2019-05-14T06:00:33.263Z,17.99
2019-05-14T06:04:03.384Z,17.93
2019-05-14T06:07:33.425Z,18.17
2019-05-14T06:11:03.426Z,18.18
2019-05-14T06:14:33.506Z,18.4
2019-05-14T06:18:15.073Z,18.5
2019-05-14T06:21:49.199Z,18.25
2019-05-14T06:25:20.979Z,18.03
2019-05-14T06:28:51.381Z,17.81
2019-05-14T06:32:21.349Z,17.9
2019-05-14T06:35:51.482Z,18.03
2019-05-14T06:39:21.487Z,17.94
2019-05-14T06:42:51.573Z,17.94
2019-05-14T06:46:22.572Z,18.08
2019-05-14T06:49:52.700Z,18.16
2019-05-14T06:53:22.784Z,18.64
2019-05-14T06:56:52.850Z,18.96
2019-05-14T07:00:16.203Z,18.36
2019-05-14T07:03:48.702Z,17.51
2019-05-14T07:07:20.654Z,17.02
2019-05-14T07:10:50.851Z,16.75
2019-05-14T07:14:20.879Z,16.74
2019-05-14T07:17:50.999Z,17.17
2019-05-14T07:21:21.287Z,17.32
2019-05-14T07:24:51.514Z,17.88
2019-05-14T07:28:21.544Z,18.51
2019-05-14T07:31:51.716Z,18.57
2019-05-14T07:35:21.862Z,18.88
2019-05-14T07:38:51.969Z,19.37
2019-05-14T07:42:22.045Z,19.41
2019-05-14T07:45:52.148Z,19.25
2019-05-14T07:49:22.307Z,19.43
2019-05-14T07:52:52.452Z,19.64
2019-05-14T07:56:22.526Z,20.03
2019-05-14T07:59:52.654Z,20.44
2019-05-14T08:03:22.781Z,20.7
2019-05-14T08:06:52.864Z,20.67
2019-05-14T08:10:22.890Z,20.31
2019-05-14T08:13:52.998Z,19.99
2019-05-14T08:17:23.085Z,20.44
2019-05-14T08:20:53.228Z,20.51
2019-05-14T08:24:26.980Z,20.76
2019-05-14T08:27:58.627Z,21.23
2019-05-14T08:31:29.419Z,21.81
2019-05-14T08:34:59.595Z,22.21
2019-05-14T08:38:29.704Z,21.96
2019-05-14T08:42:03.831Z,21.77
2019-05-14T08:45:34.250Z,21.42
2019-05-14T08:49:04.481Z,21.12
2019-05-14T08:52:35.562Z,20.78
2019-05-14T08:56:08.132Z,20.09
2019-05-14T08:59:39.564Z,19.18
2019-05-14T09:00:18.187Z,19.12
2019-05-14T09:03:49.397Z,18.54
2019-05-14T09:07:19.730Z,18.38
2019-05-14T09:10:49.967Z,18.06
2019-05-14T09:14:20.038Z,17.6
2019-05-14T09:17:50.062Z,17.23
2019-05-14T09:21:20.725Z,17.03
2019-05-14T09:24:50.967Z,17.02
2019-05-14T09:28:21.036Z,17.35
2019-05-14T09:31:51.215Z,17.85
2019-05-14T09:35:21.246Z,18.32
2019-05-14T09:38:51.401Z,18.65
2019-05-14T09:42:21.510Z,18.64
2019-05-14T09:45:51.632Z,17.95
2019-05-14T09:49:21.663Z,17.45
2019-05-14T09:52:52.669Z,17.05
2019-05-14T09:56:22.890Z,16.78
2019-05-14T09:59:53.056Z,16.53
2019-05-14T10:03:23.169Z,16.24
2019-05-14T10:06:53.242Z,16
2019-05-14T10:10:23.176Z,15.9
2019-05-14T10:13:53.323Z,16.01
2019-05-14T10:17:23.419Z,16.47
2019-05-14T10:20:53.586Z,17.3
2019-05-14T10:24:23.622Z,17.95
2019-05-14T10:27:53.646Z,18.34
2019-05-14T10:31:23.745Z,18.39
2019-05-14T10:34:53.747Z,18.21
2019-05-14T10:38:23.894Z,18.3
2019-05-14T10:41:54.058Z,18.15
2019-05-14T10:45:24.106Z,17.94
2019-05-14T10:48:54.303Z,17.78
2019-05-14T10:52:24.275Z,18.08
2019-05-14T10:56:02.561Z,18.45
2019-05-14T10:59:32.640Z,18.45
2019-05-14T11:00:18.485Z,18.39
2019-05-14T11:03:48.673Z,18.38
2019-05-14T11:07:18.759Z,18.1
2019-05-14T11:10:49.776Z,17.97
2019-05-14T11:14:20.051Z,18.09
2019-05-14T11:17:50.162Z,18.26
2019-05-14T11:21:26.419Z,18.24
2019-05-14T11:24:59.166Z,18.53
2019-05-14T11:28:29.334Z,18.97
2019-05-14T11:31:59.385Z,19.15
2019-05-14T11:35:29.366Z,19.35
2019-05-14T11:39:03.508Z,19.37
2019-05-14T11:42:33.961Z,19.6
2019-05-14T11:46:04.015Z,19.93
2019-05-14T11:49:33.994Z,20.02
2019-05-14T11:53:03.999Z,19.68
2019-05-14T11:57:02.465Z,19.55
2019-05-14T12:00:32.528Z,19.56
2019-05-14T12:04:23.067Z,19.53
2019-05-14T12:07:53.010Z,19.4
2019-05-14T12:11:23.187Z,19.21
2019-05-14T12:14:53.265Z,18.8
2019-05-14T12:18:23.328Z,19.2
2019-05-14T12:22:03.659Z,19.94
2019-05-14T12:25:36.720Z,20.4
2019-05-14T12:29:09.579Z,20.76
2019-05-14T12:32:40.128Z,20.61
2019-05-14T12:36:10.583Z,20.17
2019-05-14T12:39:40.806Z,19.73
2019-05-14T12:43:10.831Z,19.47
2019-05-14T12:46:40.918Z,19.3
2019-05-14T12:50:11.186Z,19.23
2019-05-14T12:53:41.249Z,19.36
2019-05-14T12:57:11.366Z,19.05
2019-05-14T13:00:16.077Z,18.92
2019-05-14T13:03:48.385Z,18.82
2019-05-14T13:07:19.261Z,18.77
2019-05-14T13:10:49.593Z,19.04
2019-05-14T13:14:19.639Z,19.12
2019-05-14T13:17:49.682Z,18.93
2019-05-14T13:21:19.828Z,19.35
2019-05-14T13:24:49.911Z,20.62
2019-05-14T13:28:19.928Z,22.02
2019-05-14T13:31:50.121Z,23.16
2019-05-14T13:35:20.296Z,23.52
2019-05-14T13:38:50.428Z,22.91
2019-05-14T13:42:20.595Z,21.8
2019-05-14T13:45:50.723Z,20.42
2019-05-14T13:49:20.801Z,19.72
2019-05-14T13:53:03.178Z,19.3
2019-05-14T13:56:39.031Z,19.35
2019-05-14T14:00:12.006Z,19.3
